»·PEaware :: UAL2530 KSBA-KLGB

UAL2530 :: KSBA-KLGB

FLIGHT INFORMATION

Flight Status: Arrived
Operator:
United Airlines
More flights by this operator :: More flights under this callsign
Pilot: Sergei F. (8485)
Aircraft: BOEING 737-600
(B736)
More flights by this aircraft type
Origin: KSBA Santa Barbara Mun
United States
Destination: KLGB Long Beach
United States
More flights between these airports :: More routes between these airports
Route: KWANG VTU V208 SXC SLI
File this flight plan on PilotEdge
Remarks:
Altitude:
(Current/Filed)
11,000ft
Speed:
(Current/Filed)
250kts
Departed: 16-Sep-22 08:32 PM
Arrived: 16-Sep-22 09:07 PM
Distance/Time
Traveled:
92nm/0:35
Distance/Time
To Go:
Arrived

Flight Plot

Page will automatically refresh every two minutes.


Map Options




Map Legend


Flown Route
Filed Route
Departure Airport
Arrival Airport
Navaid (VOR, NDB)
Fix

Horizontal Profiles

Position Reports

Time Latitude Longitude Heading Altitude Ground
Speed
16-Sep-22 20:15 34.425708 -119.837014 98 17ft 0kts
16-Sep-22 20:16 34.425708 -119.837014 98 17ft 0kts
16-Sep-22 20:17 34.425708 -119.837014 98 17ft 0kts
16-Sep-22 20:18 34.425708 -119.837014 98 17ft 0kts
16-Sep-22 20:19 34.425708 -119.837014 98 17ft 0kts
16-Sep-22 20:20 34.425708 -119.837014 98 17ft 0kts
16-Sep-22 20:21 34.425708 -119.837014 98 17ft 0kts
16-Sep-22 20:22 34.425708 -119.837014 98 17ft 0kts
16-Sep-22 20:23 34.425709 -119.837645 67 18ft 1kts
16-Sep-22 20:24 34.425260 -119.837903 354 19ft 1kts
16-Sep-22 20:25 34.425197 -119.837890 345 19ft 0kts
16-Sep-22 20:26 34.425197 -119.837890 345 19ft 0kts
16-Sep-22 20:27 34.425197 -119.837890 345 19ft 0kts
16-Sep-22 20:28 34.425460 -119.837970 346 17ft 8kts
16-Sep-22 20:29 34.426742 -119.836606 88 17ft 8kts
16-Sep-22 20:30 34.427546 -119.834678 346 17ft 7kts
16-Sep-22 20:31 34.427617 -119.849598 268 83ft 158kts
16-Sep-22 20:32 34.425666 -119.899437 268 2955ft 159kts
16-Sep-22 20:33 34.422462 -119.965345 268 2990ft 212kts
16-Sep-22 20:34 34.418931 -120.035832 268 3009ft 208kts
16-Sep-22 20:35 34.411304 -120.104572 235 2987ft 212kts
16-Sep-22 20:36 34.363207 -120.089033 100 4979ft 230kts
16-Sep-22 20:37 34.355923 -120.006032 95 7240ft 280kts
16-Sep-22 20:38 34.347160 -119.908224 96 8629ft 297kts
16-Sep-22 20:39 34.337554 -119.806940 96 10077ft 307kts
16-Sep-22 20:40 34.326384 -119.691056 96 10978ft 373kts
16-Sep-22 20:41 34.314208 -119.565989 96 11014ft 373kts
16-Sep-22 20:42 34.282199 -119.447513 117 11020ft 384kts
16-Sep-22 20:43 34.232709 -119.330584 117 11015ft 391kts
16-Sep-22 20:44 34.183607 -119.212989 117 11023ft 391kts
16-Sep-22 20:45 34.134561 -119.095984 117 11025ft 391kts
16-Sep-22 20:46 34.044103 -119.040548 177 10998ft 382kts
16-Sep-22 20:47 33.937956 -119.030950 176 10992ft 382kts
16-Sep-22 20:48 33.832393 -119.019865 176 10994ft 383kts
16-Sep-22 20:49 33.745812 -118.952217 129 10867ft 385kts
16-Sep-22 20:50 33.681594 -118.858254 130 10086ft 334kts
16-Sep-22 20:51 33.624876 -118.776624 130 8895ft 311kts
16-Sep-22 20:52 33.573787 -118.697753 107 7838ft 288kts
16-Sep-22 20:53 33.577844 -118.606217 81 7023ft 263kts
16-Sep-22 20:54 33.586245 -118.526357 81 6813ft 229kts
16-Sep-22 20:55 33.594279 -118.451275 81 5958ft 225kts
16-Sep-22 20:56 33.602739 -118.377583 81 5086ft 221kts
16-Sep-22 20:57 33.611618 -118.305357 81 4253ft 217kts
16-Sep-22 20:58 33.620360 -118.234507 81 3088ft 212kts
16-Sep-22 20:59 33.628728 -118.164720 81 2110ft 210kts
16-Sep-22 21:00 33.637101 -118.095387 81 1994ft 211kts
16-Sep-22 21:01 33.667378 -118.047427 349 1896ft 190kts
16-Sep-22 21:02 33.715075 -118.065066 341 1770ft 168kts
16-Sep-22 21:03 33.755161 -118.080607 335 1538ft 140kts
16-Sep-22 21:04 33.783164 -118.109455 314 813ft 121kts
16-Sep-22 21:05 33.807924 -118.139451 314 132ft 125kts
16-Sep-22 21:06 33.820837 -118.155026 315 52ft 16kts
16-Sep-22 21:07 33.821631 -118.152628 90 50ft 10kts
16-Sep-22 21:08 33.821613 -118.149361 90 54ft 9kts
16-Sep-22 21:09 33.821028 -118.146991 181 49ft 8kts
16-Sep-22 21:10 33.818906 -118.147000 180 48ft 6kts
16-Sep-22 21:11 33.818600 -118.145962 90 47ft 0kts
16-Sep-22 21:12 33.818600 -118.145962 90 47ft 0kts

Navigation Log

Ident Type
Flight plan parsing failed, navigation log unavailable